Time;durP1;ratioP1;P1;durP2;ratioP2;P2;SDS_P1;SDS_P2;PMS_P1;PMS_P2;Temp;Humidity;BMP_temperature;BMP_pressure;BME280_temperature;BME280_humidity;BME280_pressure;Samples;Min_cycle;Max_cycle;Signal;HPM_P1;HPM_P2
2022/02/16 00:00:46;;;;;;;6.90;6.13;;;8.40;99.90;;;;;;4986140;28;20035;-75
2022/02/16 00:03:12;;;;;;;7.85;6.43;;;8.40;99.90;;;;;;5000482;28;20033;-75
2022/02/16 00:05:39;;;;;;;7.25;6.40;;;8.40;99.90;;;;;;4998164;28;20143;-75
2022/02/16 00:08:05;;;;;;;6.75;5.93;;;8.40;99.90;;;;;;5002261;28;20041;-75
2022/02/16 00:10:31;;;;;;;7.35;6.30;;;8.40;99.90;;;;;;4999214;28;20034;-75
2022/02/16 00:12:58;;;;;;;6.07;5.47;;;8.40;99.90;;;;;;4997705;28;20045;-75
2022/02/16 00:15:25;;;;;;;6.60;6.00;;;8.40;99.90;;;;;;4983939;28;20057;-75
2022/02/16 00:17:52;;;;;;;5.63;4.57;;;8.40;99.90;;;;;;4982736;28;20038;-75
2022/02/16 00:20:18;;;;;;;6.38;5.78;;;8.40;99.90;;;;;;5001652;28;20043;-75
2022/02/16 00:22:45;;;;;;;8.95;5.28;;;8.40;99.90;;;;;;5003060;28;20037;-75
2022/02/16 00:25:14;;;;;;;6.30;5.20;;;8.50;99.90;;;;;;5001258;28;20402;-76
2022/02/16 00:27:40;;;;;;;6.10;5.50;;;8.50;99.90;;;;;;4981987;28;20049;-75
2022/02/16 00:30:08;;;;;;;6.38;5.18;;;8.50;99.90;;;;;;4984725;28;20038;-76
2022/02/16 00:32:34;;;;;;;5.07;4.32;;;8.50;99.90;;;;;;4970050;28;20038;-76
2022/02/16 00:35:01;;;;;;;6.13;4.97;;;8.50;99.90;;;;;;4961354;28;20030;-76
2022/02/16 00:37:27;;;;;;;5.30;4.80;;;8.50;99.90;;;;;;4999426;28;20038;-76
2022/02/16 00:39:54;;;;;;;6.88;5.60;;;8.50;99.90;;;;;;4985573;28;20810;-76
2022/02/16 00:42:20;;;;;;;8.27;5.90;;;8.50;99.90;;;;;;4984793;28;20053;-76
2022/02/16 00:44:48;;;;;;;6.28;5.68;;;8.50;99.90;;;;;;4999976;28;20045;-76
2022/02/16 00:47:15;;;;;;;7.82;5.78;;;8.50;99.90;;;;;;4983530;28;20045;-76
2022/02/16 00:49:41;;;;;;;7.00;6.13;;;8.50;99.90;;;;;;4968107;28;20042;-76
2022/02/16 00:52:08;;;;;;;8.25;5.05;;;8.50;99.90;;;;;;4974938;28;20033;-76
2022/02/16 00:54:37;;;;;;;7.10;5.60;;;8.50;99.90;;;;;;4972415;28;20102;-76
2022/02/16 00:57:04;;;;;;;8.57;6.85;;;8.50;99.90;;;;;;4998275;28;20406;-76
2022/02/16 00:59:31;;;;;;;8.00;7.20;;;8.50;99.90;;;;;;5002109;28;20855;-75
2022/02/16 01:02:02;;;;;;;8.35;6.85;;;8.50;99.90;;;;;;4998725;28;20038;-76
2022/02/16 01:04:28;;;;;;;9.05;7.72;;;8.50;99.90;;;;;;5002845;28;20053;-76
2022/02/16 01:06:56;;;;;;;8.70;7.80;;;8.50;99.90;;;;;;4979786;28;20504;-76
2022/02/16 01:09:23;;;;;;;11.38;8.35;;;8.50;99.90;;;;;;5000891;28;20038;-76
2022/02/16 01:11:52;;;;;;;9.15;8.23;;;8.50;99.90;;;;;;4997892;28;20038;-76
2022/02/16 01:14:20;;;;;;;8.98;7.85;;;8.50;99.90;;;;;;4962106;28;20043;-76
2022/02/16 01:17:07;;;;;;;9.55;8.48;;;8.60;99.90;;;;;;4966478;28;20042;-76
2022/02/16 01:20:00;;;;;;;10.50;8.93;;;8.60;99.90;;;;;;4995187;28;20505;-76
2022/02/16 01:22:31;;;;;;;11.55;9.48;;;8.50;99.90;;;;;;4986446;28;20061;-76
2022/02/16 01:24:57;;;;;;;12.00;10.25;;;8.50;99.90;;;;;;4981189;28;20069;-76
2022/02/16 01:27:26;;;;;;;10.15;8.85;;;8.60;99.90;;;;;;4995632;28;20038;-76
2022/02/16 01:29:55;;;;;;;11.82;10.55;;;8.60;99.90;;;;;;4979733;28;20379;-76
2022/02/16 01:32:39;;;;;;;15.13;11.60;;;8.60;99.90;;;;;;4978589;28;20031;-76
2022/02/16 01:35:06;;;;;;;17.05;11.50;;;8.50;99.90;;;;;;4957000;28;20508;-76
2022/02/16 01:37:33;;;;;;;12.00;10.13;;;8.60;99.90;;;;;;4980821;28;20041;-76
2022/02/16 01:40:01;;;;;;;18.98;12.88;;;8.60;99.90;;;;;;4982372;28;20516;-76
2022/02/16 01:42:31;;;;;;;12.60;10.57;;;8.60;99.90;;;;;;4962092;28;20042;-76
2022/02/16 01:45:04;;;;;;;14.38;10.95;;;8.60;99.90;;;;;;4992091;28;20057;-76
2022/02/16 01:47:30;;;;;;;21.52;13.23;;;8.60;99.90;;;;;;4974451;28;20046;-76
2022/02/16 01:49:57;;;;;;;18.75;11.75;;;8.60;99.90;;;;;;4979877;28;20038;-75
2022/02/16 01:52:24;;;;;;;13.90;11.20;;;8.60;99.90;;;;;;4974371;28;20034;-76
2022/02/16 01:54:52;;;;;;;12.38;9.63;;;8.60;99.90;;;;;;4978736;28;20051;-76
2022/02/16 01:57:19;;;;;;;12.95;10.25;;;8.60;99.90;;;;;;4945507;28;20469;-76
2022/02/16 01:59:49;;;;;;;12.38;9.32;;;8.60;99.90;;;;;;4978292;28;20041;-76
2022/02/16 02:02:21;;;;;;;13.93;10.93;;;8.60;99.90;;;;;;5000429;28;20399;-76
2022/02/16 02:04:52;;;;;;;16.48;11.13;;;8.60;99.90;;;;;;4942997;28;20085;-76
2022/02/16 02:07:19;;;;;;;13.73;9.77;;;8.60;99.90;;;;;;4972608;28;20042;-76
2022/02/16 02:09:48;;;;;;;15.35;11.15;;;8.60;99.90;;;;;;4973099;28;20045;-76
2022/02/16 02:12:15;;;;;;;15.48;9.55;;;8.60;99.90;;;;;;4960968;28;20046;-76
2022/02/16 02:14:42;;;;;;;14.85;11.63;;;8.70;99.90;;;;;;4994709;28;20034;-76
2022/02/16 02:17:21;;;;;;;15.88;10.05;;;8.70;99.90;;;;;;4965074;28;20474;-75
2022/02/16 02:19:47;;;;;;;14.35;10.77;;;8.70;99.90;;;;;;4958843;28;20497;-76
2022/02/16 02:22:14;;;;;;;10.73;9.25;;;8.70;99.90;;;;;;4975650;28;20034;-76
2022/02/16 02:24:41;;;;;;;17.17;11.65;;;8.70;99.90;;;;;;4994141;28;20034;-75
2022/02/16 02:27:07;;;;;;;13.98;10.05;;;8.70;99.90;;;;;;4958803;28;20405;-76
2022/02/16 02:29:34;;;;;;;15.40;11.18;;;8.70;99.90;;;;;;4994270;28;20282;-76
2022/02/16 02:32:04;;;;;;;17.98;11.13;;;8.70;99.90;;;;;;4993749;28;20049;-76
2022/02/16 02:34:31;;;;;;;12.70;9.95;;;8.70;99.90;;;;;;4979562;28;20038;-76
2022/02/16 02:36:58;;;;;;;12.35;10.02;;;8.70;99.90;;;;;;4963559;28;20069;-76
2022/02/16 02:39:24;;;;;;;13.63;9.73;;;8.70;99.90;;;;;;4992524;28;20045;-76
2022/02/16 02:41:51;;;;;;;13.90;8.75;;;8.70;99.90;;;;;;4977857;28;20046;-76
2022/02/16 02:44:17;;;;;;;12.30;8.52;;;8.70;99.90;;;;;;4980659;28;20045;-76
2022/02/16 02:46:46;;;;;;;16.20;9.98;;;8.70;99.90;;;;;;4957297;28;20041;-76
2022/02/16 02:49:16;;;;;;;10.68;7.80;;;8.70;99.90;;;;;;4980332;28;20042;-76
2022/02/16 02:51:44;;;;;;;11.55;7.75;;;8.80;99.90;;;;;;4939376;28;20038;-76
2022/02/16 02:54:11;;;;;;;12.55;9.82;;;8.80;99.90;;;;;;4995452;28;20023;-76
2022/02/16 02:56:42;;;;;;;10.48;7.63;;;8.80;99.90;;;;;;4994333;28;20045;-75
2022/02/16 02:59:09;;;;;;;15.20;10.48;;;8.80;99.90;;;;;;4993604;28;20050;-75
2022/02/16 03:01:39;;;;;;;13.05;9.38;;;8.80;99.90;;;;;;4948666;28;20045;-75
2022/02/16 03:04:05;;;;;;;10.85;9.45;;;8.70;99.90;;;;;;4978882;28;20038;-75
2022/02/16 03:06:34;;;;;;;11.32;9.45;;;8.80;99.90;;;;;;4979508;28;20053;-75
2022/02/16 03:09:00;;;;;;;13.73;8.90;;;8.80;99.90;;;;;;4990213;28;20044;-75
2022/02/16 03:11:27;;;;;;;11.88;7.75;;;8.80;99.90;;;;;;4981802;28;20039;-75
2022/02/16 03:13:53;;;;;;;12.43;8.30;;;8.80;99.90;;;;;;4977031;28;20026;-75
2022/02/16 03:16:27;;;;;;;9.40;7.00;;;8.80;99.90;;;;;;4998665;28;20046;-75
2022/02/16 03:18:55;;;;;;;9.43;7.35;;;8.80;99.90;;;;;;4970640;28;20478;-75
2022/02/16 03:21:21;;;;;;;11.70;8.73;;;8.80;99.90;;;;;;4974300;28;20540;-75
2022/02/16 03:23:48;;;;;;;8.57;7.35;;;8.80;99.90;;;;;;4980845;28;20039;-75
2022/02/16 03:26:14;;;;;;;13.68;7.40;;;8.80;99.90;;;;;;4966464;28;20043;-75
2022/02/16 03:28:41;;;;;;;13.32;9.45;;;8.80;99.90;;;;;;4958885;28;20042;-75
2022/02/16 03:31:17;;;;;;;9.80;8.38;;;8.80;99.90;;;;;;4963666;28;20046;-75
2022/02/16 03:33:47;;;;;;;9.45;7.38;;;8.80;99.90;;;;;;4980096;28;20034;-75
2022/02/16 03:36:14;;;;;;;14.15;9.00;;;8.80;99.90;;;;;;4942044;28;20049;-76
2022/02/16 03:38:42;;;;;;;12.07;8.73;;;8.80;99.90;;;;;;4976841;28;20944;-75
2022/02/16 03:41:09;;;;;;;9.25;7.72;;;8.80;99.90;;;;;;4975875;28;20042;-75
2022/02/16 03:43:36;;;;;;;12.68;7.85;;;8.80;99.90;;;;;;4964031;28;20034;-75
2022/02/16 03:46:02;;;;;;;11.35;7.55;;;8.80;99.90;;;;;;4949235;28;20042;-75
2022/02/16 03:48:33;;;;;;;8.10;6.45;;;8.80;99.90;;;;;;4965650;28;20050;-75
2022/02/16 03:50:59;;;;;;;15.82;8.73;;;8.80;99.90;;;;;;4982349;28;20053;-75
2022/02/16 03:53:27;;;;;;;9.23;7.55;;;8.80;99.90;;;;;;4962991;28;20042;-75
2022/02/16 03:55:54;;;;;;;12.68;8.07;;;8.80;99.90;;;;;;4964648;28;20027;-75
2022/02/16 03:58:20;;;;;;;9.00;6.60;;;8.80;99.90;;;;;;4969757;28;20470;-75
2022/02/16 04:00:47;;;;;;;11.77;7.70;;;8.80;99.90;;;;;;4956210;28;20065;-75
2022/02/16 04:03:14;;;;;;;10.43;7.47;;;8.70;99.90;;;;;;4980345;28;20045;-75
2022/02/16 04:05:42;;;;;;;13.27;6.07;;;8.80;99.90;;;;;;4977721;28;20058;-75
2022/02/16 04:08:10;;;;;;;12.85;7.38;;;8.80;99.90;;;;;;4972546;28;20046;-75
2022/02/16 04:10:36;;;;;;;9.32;5.60;;;8.80;99.90;;;;;;4962826;28;20066;-75
2022/02/16 04:13:04;;;;;;;9.50;6.47;;;8.70;99.90;;;;;;4975280;28;20549;-75
2022/02/16 04:15:33;;;;;;;6.88;4.75;;;8.70;99.90;;;;;;4981562;28;20038;-75
2022/02/16 04:18:05;;;;;;;5.95;5.35;;;8.80;99.90;;;;;;4963499;28;20057;-75
2022/02/16 04:20:32;;;;;;;6.20;4.88;;;8.80;99.90;;;;;;4979210;28;20030;-75
2022/02/16 04:22:58;;;;;;;6.70;5.05;;;8.80;99.90;;;;;;4973122;28;20406;-75
2022/02/16 04:25:26;;;;;;;8.32;6.43;;;8.70;99.90;;;;;;4981141;28;20038;-75
2022/02/16 04:27:54;;;;;;;8.57;5.30;;;8.70;99.90;;;;;;4992225;28;20034;-74
2022/02/16 04:30:23;;;;;;;7.95;5.82;;;8.70;99.90;;;;;;4983652;28;20057;-75
2022/02/16 04:32:49;;;;;;;6.00;4.65;;;8.70;99.90;;;;;;4996580;28;20039;-75
2022/02/16 04:35:17;;;;;;;8.60;6.47;;;8.70;99.90;;;;;;4967442;28;20046;-75
2022/02/16 04:37:44;;;;;;;7.25;5.43;;;8.70;99.90;;;;;;4965152;28;20046;-75
2022/02/16 04:40:11;;;;;;;6.50;4.35;;;8.70;99.90;;;;;;5004346;28;20038;-75
2022/02/16 04:42:39;;;;;;;12.43;6.15;;;8.70;99.90;;;;;;4944061;28;20054;-75
2022/02/16 04:45:07;;;;;;;6.15;4.55;;;8.80;99.90;;;;;;4932791;28;20043;-75
2022/02/16 04:47:35;;;;;;;6.47;4.60;;;8.80;99.90;;;;;;4928266;28;20047;-75
2022/02/16 04:50:03;;;;;;;5.22;4.68;;;8.80;99.90;;;;;;4949424;28;20040;-74
2022/02/16 04:52:36;;;;;;;6.93;4.72;;;8.80;99.90;;;;;;4947321;28;20058;-75
2022/02/16 04:55:12;;;;;;;6.95;4.63;;;8.80;99.90;;;;;;4950876;28;20054;-75
2022/02/16 04:57:40;;;;;;;8.38;6.47;;;8.80;99.90;;;;;;4943553;28;20407;-75
2022/02/16 05:00:09;;;;;;;8.05;5.40;;;8.80;99.90;;;;;;4932701;28;20058;-74
2022/02/16 05:02:43;;;;;;;10.05;6.38;;;8.80;99.90;;;;;;4943969;28;20570;-74
2022/02/16 05:05:10;;;;;;;9.95;6.72;;;8.80;99.90;;;;;;4945485;28;20062;-74
2022/02/16 05:07:37;;;;;;;6.60;5.10;;;8.80;99.90;;;;;;4944822;28;20054;-75
2022/02/16 05:10:05;;;;;;;7.15;4.90;;;8.80;99.90;;;;;;4944173;28;20055;-74
2022/02/16 05:12:33;;;;;;;8.23;4.97;;;8.80;99.90;;;;;;4944774;28;20039;-74
2022/02/16 05:15:00;;;;;;;7.97;5.35;;;8.80;99.90;;;;;;4966884;28;20047;-74
2022/02/16 05:17:27;;;;;;;6.40;5.38;;;8.90;99.90;;;;;;4983693;28;20110;-74
2022/02/16 05:19:54;;;;;;;6.10;4.72;;;8.80;99.90;;;;;;4981448;28;20031;-74
2022/02/16 05:22:22;;;;;;;5.85;5.18;;;8.90;99.90;;;;;;5002189;28;20029;-75
2022/02/16 05:24:51;;;;;;;11.75;8.48;;;8.90;99.90;;;;;;4980501;28;20050;-75
2022/02/16 05:27:17;;;;;;;7.35;6.35;;;8.90;99.90;;;;;;4965260;28;20521;-73
2022/02/16 05:29:44;;;;;;;9.15;6.88;;;8.90;99.90;;;;;;4964580;28;20394;-74
2022/02/16 05:32:16;;;;;;;15.63;10.50;;;8.90;99.90;;;;;;4969778;28;20031;-75
2022/02/16 05:34:43;;;;;;;7.43;6.63;;;8.90;99.90;;;;;;4981298;28;20489;-75
2022/02/16 05:37:09;;;;;;;8.18;6.63;;;8.90;99.90;;;;;;4976450;28;20026;-75
2022/02/16 05:39:36;;;;;;;7.15;6.10;;;8.90;99.90;;;;;;4966929;28;20045;-74
2022/02/16 05:42:03;;;;;;;11.30;8.02;;;8.90;99.90;;;;;;4995419;28;20034;-74
2022/02/16 05:44:31;;;;;;;8.13;7.18;;;8.90;99.90;;;;;;4979263;28;20042;-74
2022/02/16 05:46:58;;;;;;;6.75;6.05;;;8.90;99.90;;;;;;4996497;28;20034;-75
2022/02/16 05:49:27;;;;;;;6.97;6.28;;;8.90;99.90;;;;;;4963682;28;20045;-77
2022/02/16 05:51:54;;;;;;;5.35;4.85;;;9.00;99.90;;;;;;4976328;28;20039;-74
2022/02/16 05:54:21;;;;;;;7.10;5.72;;;8.90;99.90;;;;;;4958237;28;20045;-74
2022/02/16 05:56:47;;;;;;;5.60;5.07;;;8.90;99.90;;;;;;4957437;28;20034;-75
2022/02/16 05:59:17;;;;;;;7.05;6.38;;;8.90;99.90;;;;;;4981178;28;20038;-74
2022/02/16 06:01:46;;;;;;;10.30;8.10;;;8.90;99.90;;;;;;4979452;28;20481;-75
2022/02/16 06:04:16;;;;;;;8.65;6.38;;;9.00;99.90;;;;;;4960719;28;20393;-75
2022/02/16 06:06:43;;;;;;;13.07;7.35;;;9.00;99.90;;;;;;4972515;28;20061;-75
2022/02/16 06:09:10;;;;;;;8.38;5.45;;;9.00;99.90;;;;;;4979621;28;20073;-75
2022/02/16 06:11:37;;;;;;;6.18;5.50;;;9.00;99.90;;;;;;4997702;28;20474;-74
2022/02/16 06:14:10;;;;;;;5.50;5.00;;;9.00;99.90;;;;;;4983522;28;20504;-75
2022/02/16 06:16:38;;;;;;;7.13;6.03;;;8.90;99.90;;;;;;4961309;28;20035;-75
2022/02/16 06:19:06;;;;;;;5.57;5.07;;;9.00;99.90;;;;;;4985082;28;20042;-75
2022/02/16 06:21:32;;;;;;;6.00;5.50;;;9.00;99.90;;;;;;4948195;28;20138;-75
2022/02/16 06:24:00;;;;;;;5.45;4.95;;;8.90;99.90;;;;;;4966912;28;20121;-74
2022/02/16 06:26:27;;;;;;;7.93;7.18;;;9.00;99.90;;;;;;4976321;28;20042;-74
2022/02/16 06:28:54;;;;;;;7.22;5.75;;;9.00;99.90;;;;;;4979374;28;20065;-74
2022/02/16 06:31:23;;;;;;;6.97;5.47;;;9.00;99.90;;;;;;4979176;28;20037;-74
2022/02/16 06:33:49;;;;;;;6.13;5.57;;;9.00;99.90;;;;;;4980343;28;20406;-74
2022/02/16 06:36:16;;;;;;;6.18;5.55;;;9.10;99.90;;;;;;4990961;28;20041;-74
2022/02/16 06:38:43;;;;;;;6.07;5.47;;;9.10;99.90;;;;;;4976327;28;20033;-74
2022/02/16 06:41:12;;;;;;;6.93;5.07;;;9.10;99.90;;;;;;4966987;28;20034;-74
2022/02/16 06:43:38;;;;;;;5.15;4.65;;;9.10;99.90;;;;;;4959591;28;20374;-74
2022/02/16 06:46:05;;;;;;;5.50;5.00;;;9.10;99.90;;;;;;4941084;28;20049;-74
2022/02/16 06:48:32;;;;;;;5.90;5.30;;;9.10;99.90;;;;;;4975500;28;20049;-76
2022/02/16 06:50:59;;;;;;;9.25;6.88;;;9.20;99.90;;;;;;4994446;28;20043;-76
2022/02/16 06:53:27;;;;;;;7.97;6.05;;;9.20;99.90;;;;;;4960314;28;20486;-74
2022/02/16 06:55:53;;;;;;;6.75;4.82;;;9.20;99.90;;;;;;4962846;28;20532;-75
2022/02/16 06:58:40;;;;;;;5.30;4.80;;;9.20;99.90;;;;;;4988277;28;20073;-75
2022/02/16 07:01:06;;;;;;;5.70;5.10;;;9.20;99.90;;;;;;4950879;28;20046;-75
2022/02/16 07:03:33;;;;;;;5.45;4.45;;;9.20;99.90;;;;;;4977088;28;20034;-75
2022/02/16 07:06:07;;;;;;;5.07;4.57;;;9.20;99.90;;;;;;4977128;28;20062;-75
2022/02/16 07:08:34;;;;;;;6.63;5.30;;;9.20;99.90;;;;;;4976615;28;20041;-75
2022/02/16 07:11:02;;;;;;;6.22;4.28;;;9.20;99.90;;;;;;4973646;28;20031;-75
2022/02/16 07:13:29;;;;;;;5.68;5.10;;;9.30;99.90;;;;;;4967028;28;20069;-74
2022/02/16 07:15:56;;;;;;;4.43;4.03;;;9.30;99.90;;;;;;4978176;28;20049;-74
2022/02/16 07:18:22;;;;;;;4.43;4.03;;;9.30;99.90;;;;;;4995940;28;20039;-74
2022/02/16 07:20:57;;;;;;;4.47;3.80;;;9.30;99.90;;;;;;4979345;28;20064;-75
2022/02/16 07:23:23;;;;;;;4.15;3.75;;;9.30;99.90;;;;;;4994175;28;20038;-75
2022/02/16 07:25:50;;;;;;;4.25;3.85;;;9.30;99.90;;;;;;4979881;28;20394;-75
2022/02/16 07:28:21;;;;;;;4.40;3.88;;;9.30;99.90;;;;;;4978128;28;20038;-75
2022/02/16 07:30:48;;;;;;;3.97;3.60;;;9.40;99.90;;;;;;4974266;28;20037;-75
2022/02/16 07:33:16;;;;;;;5.63;3.55;;;9.40;99.90;;;;;;4980561;28;20041;-75
2022/02/16 07:35:44;;;;;;;4.70;3.00;;;9.40;99.90;;;;;;4996090;28;20045;-75
2022/02/16 07:38:11;;;;;;;6.05;4.00;;;9.40;99.90;;;;;;4972302;28;20041;-75
2022/02/16 07:40:38;;;;;;;4.82;3.05;;;9.40;99.90;;;;;;4998734;28;20046;-75
2022/02/16 07:43:05;;;;;;;4.45;3.38;;;9.40;99.90;;;;;;4956698;28;20042;-75
2022/02/16 07:45:55;;;;;;;4.13;2.95;;;9.40;99.90;;;;;;4956620;28;20049;-75
2022/02/16 07:48:26;;;;;;;4.80;3.78;;;9.50;99.90;;;;;;4961771;28;20437;-75
2022/02/16 07:50:53;;;;;;;3.05;2.75;;;9.50;99.90;;;;;;4979335;28;20038;-75
2022/02/16 07:53:43;;;;;;;4.00;2.80;;;9.50;99.90;;;;;;4987811;28;20039;-75
2022/02/16 07:56:09;;;;;;;2.72;2.22;;;9.50;99.90;;;;;;4966556;28;20385;-74
2022/02/16 07:58:36;;;;;;;3.92;2.85;;;9.60;99.90;;;;;;4981935;28;20038;-75
2022/02/16 08:01:03;;;;;;;2.63;2.42;;;9.60;99.90;;;;;;4981110;28;20038;-74
2022/02/16 08:03:29;;;;;;;3.50;2.80;;;9.60;99.90;;;;;;4979891;28;20045;-74
2022/02/16 08:05:56;;;;;;;2.60;2.20;;;9.60;99.90;;;;;;4993482;28;20573;-74
2022/02/16 08:08:24;;;;;;;4.07;2.88;;;9.70;99.90;;;;;;4985800;28;20044;-74
2022/02/16 08:10:52;;;;;;;3.67;2.92;;;9.70;99.90;;;;;;4982418;28;20027;-74
2022/02/16 08:13:20;;;;;;;2.95;2.58;;;9.70;99.90;;;;;;4968639;28;20042;-74
2022/02/16 08:16:07;;;;;;;4.00;2.80;;;9.70;99.90;;;;;;4999476;28;20061;-76
2022/02/16 08:18:34;;;;;;;4.13;3.03;;;9.70;99.90;;;;;;4962904;28;20034;-74
2022/02/16 08:21:01;;;;;;;3.42;2.58;;;9.80;99.90;;;;;;4954598;28;20057;-74
2022/02/16 08:23:37;;;;;;;3.03;2.42;;;9.80;99.90;;;;;;4984433;28;20034;-75
2022/02/16 08:26:04;;;;;;;4.57;2.40;;;9.80;99.90;;;;;;4961653;28;20042;-75
2022/02/16 08:28:32;;;;;;;4.30;3.50;;;9.90;99.90;;;;;;4961334;28;20046;-74
2022/02/16 08:30:58;;;;;;;3.92;2.88;;;9.90;99.90;;;;;;4940380;28;20034;-74
2022/02/16 08:33:38;;;;;;;5.55;3.13;;;9.90;99.90;;;;;;4983981;28;20034;-74
2022/02/16 08:36:11;;;;;;;3.95;3.17;;;10.00;99.90;;;;;;4983008;28;20034;-75
2022/02/16 08:38:38;;;;;;;4.10;3.33;;;10.00;99.90;;;;;;4996228;28;20486;-75
2022/02/16 08:41:05;;;;;;;5.43;3.85;;;10.00;99.90;;;;;;5001151;28;20054;-75
2022/02/16 08:43:32;;;;;;;4.63;3.35;;;10.10;99.90;;;;;;4996863;28;20565;-74
2022/02/16 08:45:58;;;;;;;5.18;3.78;;;10.10;99.90;;;;;;4982630;28;20042;-74
2022/02/16 08:48:27;;;;;;;6.35;4.10;;;10.20;99.90;;;;;;4963979;28;20049;-74
2022/02/16 08:50:55;;;;;;;3.85;3.08;;;10.20;99.90;;;;;;4966501;28;20039;-74
2022/02/16 08:53:27;;;;;;;6.45;4.68;;;10.20;99.90;;;;;;4981258;28;20057;-74
2022/02/16 08:55:53;;;;;;;6.13;4.70;;;10.20;99.90;;;;;;4979936;28;20042;-74
2022/02/16 08:58:21;;;;;;;7.75;5.78;;;10.20;99.90;;;;;;4963136;28;20040;-74
2022/02/16 09:00:49;;;;;;;7.20;4.75;;;10.30;99.90;;;;;;4998677;28;20037;-74
2022/02/16 09:03:16;;;;;;;7.43;5.05;;;10.30;99.90;;;;;;4976052;28;20034;-74
2022/02/16 09:05:43;;;;;;;6.45;4.90;;;10.30;99.90;;;;;;4995731;28;20050;-75
2022/02/16 09:08:09;;;;;;;7.45;5.50;;;10.30;99.90;;;;;;4997713;28;20053;-74
2022/02/16 09:10:36;;;;;;;7.80;5.95;;;10.40;99.90;;;;;;4995613;28;20090;-75
2022/02/16 09:13:02;;;;;;;5.60;4.63;;;10.40;99.90;;;;;;4995996;28;20030;-74
2022/02/16 09:15:29;;;;;;;6.53;5.45;;;10.40;99.90;;;;;;4997766;28;20034;-75
2022/02/16 09:17:56;;;;;;;12.43;6.90;;;10.40;99.90;;;;;;4957803;28;20041;-74
2022/02/16 09:20:26;;;;;;;7.88;6.13;;;10.40;99.90;;;;;;4994155;28;20030;-75
2022/02/16 09:22:53;;;;;;;7.90;6.25;;;10.50;99.90;;;;;;4974906;28;20030;-75
2022/02/16 09:25:20;;;;;;;8.68;6.45;;;10.50;99.90;;;;;;4992528;28;20038;-75
2022/02/16 09:27:47;;;;;;;7.63;6.32;;;10.50;99.90;;;;;;4994484;28;20049;-75
2022/02/16 09:30:15;;;;;;;14.82;8.57;;;10.60;99.90;;;;;;4994185;28;20038;-75
2022/02/16 09:32:42;;;;;;;10.98;7.80;;;10.60;99.90;;;;;;4995131;28;20052;-74
2022/02/16 09:35:09;;;;;;;9.23;7.60;;;10.60;99.90;;;;;;4995971;28;20034;-75
2022/02/16 09:37:36;;;;;;;9.30;6.80;;;10.60;99.90;;;;;;4981345;28;20046;-76
2022/02/16 09:40:05;;;;;;;8.32;6.43;;;10.60;99.90;;;;;;4982634;28;20045;-75
2022/02/16 09:42:32;;;;;;;9.65;7.32;;;10.60;99.90;;;;;;4996930;28;20049;-75
2022/02/16 09:45:01;;;;;;;8.23;6.68;;;10.70;99.90;;;;;;4994415;28;20042;-74
2022/02/16 09:47:30;;;;;;;9.70;6.65;;;10.70;99.90;;;;;;4995961;28;20042;-74
2022/02/16 09:49:58;;;;;;;11.32;7.70;;;10.70;99.90;;;;;;4997494;28;20520;-74
2022/02/16 09:52:25;;;;;;;13.48;8.88;;;10.70;99.90;;;;;;4997194;28;20038;-76
2022/02/16 09:54:52;;;;;;;12.77;8.50;;;10.70;99.90;;;;;;4997450;28;20030;-73
2022/02/16 09:57:19;;;;;;;13.32;7.70;;;10.80;99.90;;;;;;4980048;28;20374;-74
2022/02/16 09:59:46;;;;;;;10.65;8.32;;;10.80;99.90;;;;;;4996794;28;20026;-74
2022/02/16 10:02:15;;;;;;;11.38;8.65;;;10.80;99.90;;;;;;4981237;28;20469;-73
2022/02/16 10:04:54;;;;;;;13.35;8.27;;;10.90;99.90;;;;;;4994492;28;20038;-74
2022/02/16 10:07:30;;;;;;;15.35;8.27;;;10.90;99.90;;;;;;4997062;28;20037;-73
2022/02/16 10:10:11;;;;;;;14.18;7.78;;;10.90;99.90;;;;;;4979022;28;20046;-73
2022/02/16 10:12:37;;;;;;;13.70;7.88;;;11.00;99.90;;;;;;4996055;28;20061;-74
2022/02/16 10:15:04;;;;;;;13.18;7.82;;;11.00;99.90;;;;;;4996667;28;20042;-74
2022/02/16 10:17:31;;;;;;;10.30;6.65;;;11.00;99.90;;;;;;4994788;28;20038;-73
2022/02/16 10:20:00;;;;;;;11.18;6.90;;;11.00;99.90;;;;;;4943320;28;20038;-74
2022/02/16 10:22:39;;;;;;;12.18;6.88;;;11.00;99.90;;;;;;4956884;28;20050;-74
2022/02/16 10:25:10;;;;;;;17.17;7.78;;;11.10;99.90;;;;;;4978102;28;20088;-73
2022/02/16 10:27:36;;;;;;;17.45;8.02;;;11.10;99.90;;;;;;4994950;28;20046;-73
2022/02/16 10:30:10;;;;;;;15.52;8.48;;;11.20;99.90;;;;;;4996102;28;20415;-73
2022/02/16 10:32:37;;;;;;;14.75;7.47;;;11.20;99.90;;;;;;4975474;28;20113;-73
2022/02/16 10:35:04;;;;;;;14.30;6.82;;;11.20;99.90;;;;;;4998856;28;20381;-75
2022/02/16 10:37:38;;;;;;;18.55;8.50;;;11.30;99.90;;;;;;4980867;28;20042;-75
2022/02/16 10:40:10;;;;;;;15.43;8.23;;;11.30;99.90;;;;;;4998392;28;20035;-74
2022/02/16 10:42:38;;;;;;;17.98;8.55;;;11.40;99.90;;;;;;4994738;28;20034;-75
2022/02/16 10:45:12;;;;;;;15.55;8.25;;;11.40;99.90;;;;;;4997526;28;20038;-73
2022/02/16 10:48:04;;;;;;;13.93;6.40;;;11.50;99.90;;;;;;4982997;28;20034;-75
2022/02/16 10:50:57;;;;;;;17.42;7.30;;;11.50;99.90;;;;;;4993659;28;20053;-74
2022/02/16 10:53:29;;;;;;;16.75;7.07;;;11.50;99.90;;;;;;4976119;28;20054;-75
2022/02/16 10:55:57;;;;;;;13.35;5.63;;;11.50;99.90;;;;;;4980040;28;20037;-75
2022/02/16 10:58:26;;;;;;;12.30;5.13;;;11.50;99.90;;;;;;4959735;28;20042;-74
2022/02/16 11:00:57;;;;;;;12.13;5.28;;;11.50;99.90;;;;;;4960535;28;20038;-75
2022/02/16 11:03:31;;;;;;;12.32;4.85;;;11.60;99.90;;;;;;4958912;28;20035;-75
2022/02/16 11:06:07;;;;;;;10.25;5.85;;;11.60;99.90;;;;;;4963960;28;20517;-74
2022/02/16 11:08:36;;;;;;;12.30;5.65;;;11.60;99.90;;;;;;4994073;28;20486;-74
2022/02/16 11:11:04;;;;;;;11.02;6.22;;;11.60;99.90;;;;;;4995262;28;20049;-74
2022/02/16 11:13:36;;;;;;;12.85;6.40;;;11.60;99.90;;;;;;4973190;28;20498;-74
2022/02/16 11:16:04;;;;;;;13.80;6.82;;;11.60;99.90;;;;;;4995289;28;20030;-74
2022/02/16 11:18:45;;;;;;;16.25;7.43;;;11.60;99.90;;;;;;4993569;28;20514;-75
2022/02/16 11:21:14;;;;;;;19.80;8.63;;;11.60;99.90;;;;;;4978281;28;20034;-74
2022/02/16 11:23:47;;;;;;;21.52;7.72;;;11.60;99.90;;;;;;4994265;28;20061;-74
2022/02/16 11:26:29;;;;;;;;;;;11.60;99.90;;;;;;4980082;28;20034;-74
2022/02/16 11:28:57;;;;;;;26.23;7.40;;;11.60;99.90;;;;;;4993712;28;19916;-74
2022/02/16 11:31:33;;;;;;;18.35;6.60;;;11.60;99.90;;;;;;4995977;28;20042;-74
2022/02/16 11:34:21;;;;;;;14.77;5.03;;;11.70;99.90;;;;;;4992888;28;20045;-74
2022/02/16 11:37:02;;;;;;;14.60;5.70;;;11.70;99.90;;;;;;4991921;28;20034;-74
2022/02/16 11:39:52;;;;;;;19.63;5.90;;;11.70;99.90;;;;;;4996304;28;20023;-74
2022/02/16 11:42:21;;;;;;;20.17;4.90;;;11.70;99.90;;;;;;4996230;28;20034;-74
2022/02/16 11:44:50;;;;;;;14.73;4.15;;;11.70;99.90;;;;;;4993676;28;20046;-74
2022/02/16 11:47:35;;;;;;;15.75;3.78;;;11.80;99.90;;;;;;4992385;28;21006;-74
2022/02/16 11:50:14;;;;;;;12.60;3.17;;;11.80;99.90;;;;;;4994077;28;20500;-75
2022/02/16 11:52:50;;;;;;;13.20;3.15;;;11.70;99.90;;;;;;4994820;28;20039;-75
2022/02/16 11:55:22;;;;;;;10.23;2.88;;;11.80;99.90;;;;;;4994088;28;20045;-73
2022/02/16 11:58:02;;;;;;;14.48;2.97;;;11.70;99.90;;;;;;4994715;28;20514;-75
2022/02/16 12:00:38;;;;;;;11.02;2.55;;;11.80;99.90;;;;;;4995498;28;20037;-75
2022/02/16 12:03:08;;;;;;;15.20;3.35;;;11.80;99.90;;;;;;4993434;28;20483;-75
2022/02/16 12:06:00;;;;;;;16.48;4.05;;;11.80;99.90;;;;;;4979098;28;20043;-75
2022/02/16 12:08:38;;;;;;;15.98;3.70;;;11.80;99.90;;;;;;4975024;28;20034;-75
2022/02/16 12:11:28;;;;;;;12.48;3.85;;;11.80;99.90;;;;;;4976223;28;20042;-75
2022/02/16 12:14:12;;;;;;;14.07;4.38;;;11.90;99.90;;;;;;4993019;28;20023;-74
2022/02/16 12:16:44;;;;;;;19.90;5.40;;;11.90;99.90;;;;;;4976576;28;20034;-73
2022/02/16 12:19:16;;;;;;;11.98;4.10;;;11.90;99.90;;;;;;4994734;28;20058;-73
2022/02/16 12:21:46;;;;;;;15.02;4.60;;;11.90;99.90;;;;;;4994963;28;20698;-73
2022/02/16 12:24:19;;;;;;;13.43;4.45;;;11.90;99.90;;;;;;4977262;28;20049;-73
2022/02/16 12:26:48;;;;;;;15.80;4.78;;;11.90;99.90;;;;;;4975190;28;20041;-73
2022/02/16 12:29:17;;;;;;;13.25;4.30;;;11.90;99.90;;;;;;4993738;28;20043;-73
2022/02/16 12:31:49;;;;;;;14.68;4.25;;;12.00;99.90;;;;;;4972803;28;20041;-73
2022/02/16 12:34:21;;;;;;;11.48;4.03;;;12.00;99.90;;;;;;4993251;28;20416;-74
2022/02/16 12:36:56;;;;;;;14.90;4.20;;;12.00;99.90;;;;;;4945705;28;20038;-73
2022/02/16 12:39:24;;;;;;;12.20;3.35;;;12.00;99.90;;;;;;4991451;28;20486;-74
2022/02/16 12:41:50;;;;;;;12.30;3.70;;;12.00;99.90;;;;;;4960049;28;20034;-73
2022/02/16 12:44:20;;;;;;;14.00;3.50;;;12.00;99.90;;;;;;4974806;28;20037;-73
2022/02/16 12:46:51;;;;;;;19.05;4.63;;;12.00;99.90;;;;;;4974212;28;20390;-73
2022/02/16 12:49:22;;;;;;;14.93;3.15;;;12.00;99.90;;;;;;4991893;28;20041;-74
2022/02/16 12:51:52;;;;;;;11.60;3.33;;;12.00;99.90;;;;;;4975612;28;20394;-74
2022/02/16 12:54:24;;;;;;;14.85;3.38;;;12.10;99.90;;;;;;4981664;28;20076;-74
2022/02/16 12:56:58;;;;;;;14.90;3.92;;;12.10;99.90;;;;;;4996188;28;20492;-74
2022/02/16 12:59:36;;;;;;;17.67;4.80;;;12.10;99.90;;;;;;4998585;28;20037;-74